»·PEaware :: N903DJ KLAS-KLMT

N903DJ :: KLAS-KLMT

FLIGHT INFORMATION

Flight Status: Arrived
Operator: Privately registered:
United States
More flights under this callsign
Pilot: Drew L. (13237)
Aircraft: BOEING 737-800
(B738)
More flights by this aircraft type
Origin: KLAS McCarran Intl
United States
Destination: KLMT Klamath Falls Intl
United States
More flights between these airports :: More routes between these airports
Route: SHEAD1 OAL J92 LMT
File this flight plan on PilotEdge
Remarks: PBN / A1B1C1D1S1S2 DOF / 181002 REG / N806SB EET / KZOA0026 KZSE0102 PER / C RMK / TCAS SIMBRIEF
Altitude:
(Current/Filed)
36,000ft
Speed:
(Current/Filed)
453kts
Departed: 02-Oct-18 02:54 PM
Arrived: 02-Oct-18 04:18 PM
Distance/Time
Traveled:
476nm/1:24
Distance/Time
To Go:
Arrived

Flight Plot

Page will automatically refresh every two minutes.

Flight plan parsing failed; only flown route is shown


Map Options




Map Legend


Flown Route
Filed Route
Departure Airport
Arrival Airport
Navaid (VOR, NDB)
Fix

Horizontal Profiles

Position Reports

Time Latitude Longitude Heading Altitude Ground
Speed
02-Oct-18 14:17 36.098398 -115.160506 113 2119ft 0kts
02-Oct-18 14:18 36.098398 -115.160506 113 2119ft 0kts
02-Oct-18 14:19 36.098398 -115.160506 113 2119ft 0kts
02-Oct-18 14:20 36.098398 -115.160506 113 2119ft 0kts
02-Oct-18 14:21 36.098398 -115.160506 113 2119ft 0kts
02-Oct-18 14:22 36.098398 -115.160506 113 2119ft 0kts
02-Oct-18 14:23 36.098398 -115.160506 113 2119ft 0kts
02-Oct-18 14:24 36.098398 -115.160506 113 2119ft 0kts
02-Oct-18 14:25 36.098398 -115.160506 113 2119ft 0kts
02-Oct-18 14:26 36.098398 -115.160506 113 2119ft 0kts
02-Oct-18 14:27 36.098398 -115.160506 113 2119ft 0kts
02-Oct-18 14:28 36.098398 -115.160506 113 2119ft 0kts
02-Oct-18 14:29 36.098398 -115.160506 113 2119ft 0kts
02-Oct-18 14:30 36.098398 -115.160506 113 2119ft 0kts
02-Oct-18 14:31 36.098398 -115.160506 113 2119ft 0kts
02-Oct-18 14:32 36.098398 -115.160506 113 2119ft 0kts
02-Oct-18 14:33 36.098398 -115.160506 113 2119ft 0kts
02-Oct-18 14:34 36.098398 -115.160506 113 2119ft 0kts
02-Oct-18 14:35 36.098398 -115.160506 113 2119ft 0kts
02-Oct-18 14:36 36.098398 -115.160506 113 2119ft 0kts
02-Oct-18 14:37 36.098398 -115.160506 113 2119ft 0kts
02-Oct-18 14:38 36.098398 -115.160506 113 2119ft 0kts
02-Oct-18 14:39 36.098398 -115.160506 113 2119ft 0kts
02-Oct-18 14:40 36.098398 -115.160506 113 2119ft 0kts
02-Oct-18 14:41 36.098398 -115.160506 113 2119ft 0kts
02-Oct-18 14:42 36.098398 -115.160506 113 2119ft 0kts
02-Oct-18 14:43 36.098398 -115.160506 113 2119ft 0kts
02-Oct-18 14:44 36.098398 -115.160506 113 2119ft 0kts
02-Oct-18 14:45 36.098398 -115.160506 113 2119ft 0kts
02-Oct-18 14:46 36.098398 -115.160506 113 2119ft 0kts
02-Oct-18 14:47 36.098398 -115.160506 113 2119ft 0kts
02-Oct-18 14:48 36.098398 -115.160506 113 2119ft 0kts
02-Oct-18 14:49 36.098398 -115.160506 113 2119ft 0kts
02-Oct-18 14:50 36.098398 -115.160506 113 2119ft 0kts
02-Oct-18 14:51 36.098398 -115.160506 113 2119ft 0kts
02-Oct-18 14:52 36.098398 -115.160506 113 2119ft 0kts
02-Oct-18 14:53 36.098398 -115.160506 113 2119ft 0kts
02-Oct-18 14:54 36.098240 -115.160022 92 2119ft 8kts
02-Oct-18 14:55 36.099544 -115.156616 151 2119ft 6kts
02-Oct-18 14:56 36.086393 -115.164054 204 2119ft 145kts
02-Oct-18 14:57 36.046592 -115.187382 201 4054ft 159kts
02-Oct-18 14:58 36.005777 -115.218220 236 5343ft 213kts
02-Oct-18 14:59 35.973404 -115.296551 237 6913ft 281kts
02-Oct-18 15:00 35.917861 -115.366673 222 9000ft 295kts
02-Oct-18 15:01 35.887287 -115.459418 268 10995ft 323kts
02-Oct-18 15:02 35.889013 -115.570276 270 11035ft 325kts
02-Oct-18 15:03 35.890985 -115.675119 269 11362ft 332kts
02-Oct-18 15:04 35.892742 -115.777938 268 13976ft 334kts
02-Oct-18 15:05 35.894598 -115.893076 267 16607ft 343kts
02-Oct-18 15:06 35.927635 -116.004580 305 18973ft 372kts
02-Oct-18 15:07 36.003960 -116.095443 311 21114ft 389kts
02-Oct-18 15:08 36.083113 -116.186724 310 23006ft 400kts
02-Oct-18 15:09 36.164720 -116.281123 309 24654ft 410kts
02-Oct-18 15:10 36.248552 -116.378384 309 26240ft 419kts
02-Oct-18 15:11 36.334287 -116.478158 308 27730ft 427kts
02-Oct-18 15:12 36.421374 -116.579821 308 29123ft 435kts
02-Oct-18 15:13 36.506976 -116.679931 306 30799ft 430kts
02-Oct-18 15:14 36.598632 -116.775023 318 32420ft 440kts
02-Oct-18 15:15 36.702882 -116.853507 318 33876ft 436kts
02-Oct-18 15:16 36.805827 -116.931803 317 35104ft 435kts
02-Oct-18 15:17 36.908790 -117.010486 317 36021ft 440kts
02-Oct-18 15:18 37.016222 -117.093092 318 36107ft 468kts
02-Oct-18 15:19 37.129562 -117.180259 320 36081ft 489kts
02-Oct-18 15:20 37.244531 -117.268846 320 36084ft 488kts
02-Oct-18 15:21 37.363278 -117.352751 325 36087ft 494kts
02-Oct-18 15:22 37.484508 -117.431016 324 36066ft 491kts
02-Oct-18 15:23 37.606200 -117.510203 324 36084ft 492kts
02-Oct-18 15:24 37.727240 -117.589258 324 36087ft 493kts
02-Oct-18 15:25 37.839942 -117.663114 324 36080ft 493kts
02-Oct-18 15:26 37.946385 -117.732810 326 36053ft 495kts
02-Oct-18 15:27 38.062540 -117.817950 306 36100ft 472kts
02-Oct-18 15:28 38.153033 -117.930793 305 36051ft 469kts
02-Oct-18 15:29 38.245625 -118.047368 305 35996ft 469kts
02-Oct-18 15:30 38.338200 -118.164362 305 35977ft 469kts
02-Oct-18 15:31 38.430415 -118.281378 305 35976ft 470kts
02-Oct-18 15:32 38.522716 -118.398755 306 35979ft 472kts
02-Oct-18 15:33 38.617292 -118.514733 306 35979ft 472kts
02-Oct-18 15:34 38.711508 -118.630972 306 35982ft 471kts
02-Oct-18 15:35 38.800612 -118.740871 306 35993ft 470kts
02-Oct-18 15:36 38.894664 -118.856745 306 35993ft 469kts
02-Oct-18 15:37 38.987982 -118.971744 309 35987ft 463kts
02-Oct-18 15:38 39.079436 -119.086104 310 35972ft 458kts
02-Oct-18 15:39 39.170406 -119.199965 311 35972ft 461kts
02-Oct-18 15:40 39.261840 -119.314552 310 35976ft 461kts
02-Oct-18 15:41 39.353295 -119.430504 310 35974ft 461kts
02-Oct-18 15:42 39.444460 -119.545981 310 35963ft 460kts
02-Oct-18 15:43 39.535980 -119.658298 318 35967ft 464kts
02-Oct-18 15:44 39.645394 -119.743516 325 35973ft 468kts
02-Oct-18 15:45 39.757796 -119.829146 325 35987ft 467kts
02-Oct-18 15:46 39.870317 -119.915400 325 35991ft 469kts
02-Oct-18 15:47 39.982336 -120.001319 325 35994ft 472kts
02-Oct-18 15:48 40.094503 -120.087216 325 35984ft 470kts
02-Oct-18 15:49 40.205963 -120.172528 325 35966ft 469kts
02-Oct-18 15:50 40.318440 -120.258574 325 35949ft 469kts
02-Oct-18 15:51 40.430702 -120.345000 324 35941ft 469kts
02-Oct-18 15:52 40.541288 -120.434219 323 35952ft 469kts
02-Oct-18 15:53 40.652001 -120.523360 324 35959ft 469kts
02-Oct-18 15:54 40.763726 -120.613258 324 34760ft 469kts
02-Oct-18 15:55 40.874438 -120.702312 324 33323ft 473kts
02-Oct-18 15:56 40.986941 -120.792758 324 31652ft 476kts
02-Oct-18 15:57 41.096833 -120.880982 325 29683ft 454kts
02-Oct-18 15:58 41.203190 -120.966473 326 27729ft 461kts
02-Oct-18 15:59 41.312055 -121.053839 326 25750ft 458kts
02-Oct-18 16:00 41.420979 -121.141205 327 23764ft 462kts
02-Oct-18 16:01 41.535627 -121.212476 339 21944ft 435kts
02-Oct-18 16:02 41.643662 -121.259505 339 19874ft 397kts
02-Oct-18 16:03 41.746540 -121.304496 339 17185ft 384kts
02-Oct-18 16:04 41.846114 -121.348161 339 14902ft 366kts
02-Oct-18 16:05 41.943931 -121.391278 339 14111ft 371kts
02-Oct-18 16:06 42.041529 -121.434433 339 13989ft 371kts
02-Oct-18 16:07 42.138892 -121.477623 339 13982ft 367kts
02-Oct-18 16:08 42.226558 -121.516442 338 13986ft 309kts
02-Oct-18 16:09 42.308000 -121.552826 338 13988ft 308kts
02-Oct-18 16:10 42.389320 -121.589292 338 13373ft 314kts
02-Oct-18 16:11 42.470629 -121.630053 322 11569ft 309kts
02-Oct-18 16:12 42.519473 -121.709649 253 9883ft 273kts
02-Oct-18 16:13 42.475501 -121.778622 224 9230ft 222kts
02-Oct-18 16:14 42.432825 -121.831721 224 8392ft 205kts
02-Oct-18 16:15 42.380129 -121.851636 183 7621ft 211kts
02-Oct-18 16:16 42.324370 -121.824897 159 6749ft 214kts
02-Oct-18 16:17 42.274255 -121.796579 162 5852ft 179kts
02-Oct-18 16:18 42.228644 -121.772163 161 5301ft 169kts
02-Oct-18 16:19 42.186521 -121.749607 161 4510ft 165kts
02-Oct-18 16:20 42.153492 -121.731907 155 4099ft 32kts
02-Oct-18 16:21 42.152517 -121.734424 337 4099ft 12kts
02-Oct-18 16:22 42.159502 -121.738194 337 4097ft 31kts

Navigation Log

Ident Type
Flight plan parsing failed, navigation log unavailable